createdAt,value
2023-03-15T00:01:24.275Z,6.03
2023-03-15T00:03:51.512Z,5.10
2023-03-15T00:06:18.674Z,3.25
2023-03-15T00:08:47.512Z,5.88
2023-03-15T00:11:17.592Z,3.22
2023-03-15T00:13:45.177Z,4.75
2023-03-15T00:16:18.396Z,3.08
2023-03-15T00:18:48.762Z,2.25
2023-03-15T00:21:16.014Z,2.58
2023-03-15T00:23:43.182Z,2.10
2023-03-15T00:26:10.293Z,2.60
2023-03-15T00:28:37.425Z,2.60
2023-03-15T00:31:05.654Z,3.65
2023-03-15T00:33:34.815Z,3.58
2023-03-15T00:36:08.704Z,4.20
2023-03-15T00:38:36.442Z,3.72
2023-03-15T00:41:10.117Z,4.10
2023-03-15T00:43:37.229Z,3.70
2023-03-15T00:46:04.494Z,4.00
2023-03-15T00:48:31.774Z,4.20
2023-03-15T00:51:05.977Z,4.43
2023-03-15T00:53:33.250Z,5.93
2023-03-15T00:56:04.168Z,6.22
2023-03-15T00:58:31.355Z,7.45
2023-03-15T01:00:58.583Z,6.25
2023-03-15T01:03:25.817Z,6.40
2023-03-15T01:05:53.018Z,6.20
2023-03-15T01:08:20.234Z,6.00
2023-03-15T01:10:47.589Z,7.65
2023-03-15T01:13:14.788Z,7.43
2023-03-15T01:15:45.876Z,8.97
2023-03-15T01:18:13.085Z,6.33
2023-03-15T01:20:42.905Z,7.95
2023-03-15T01:23:10.129Z,6.00
2023-03-15T01:25:37.324Z,5.40
2023-03-15T01:28:04.601Z,5.50
2023-03-15T01:30:31.810Z,5.47
2023-03-15T01:32:59.094Z,5.17
2023-03-15T01:35:26.319Z,4.70
2023-03-15T01:37:53.547Z,8.90
2023-03-15T01:40:20.724Z,13.80
2023-03-15T01:42:55.241Z,6.97
2023-03-15T01:45:41.028Z,8.57
2023-03-15T01:48:08.218Z,6.60
2023-03-15T01:50:35.406Z,4.53
2023-03-15T01:53:03.066Z,6.23
2023-03-15T01:55:32.594Z,5.07
2023-03-15T01:57:59.833Z,5.00
2023-03-15T02:00:27.730Z,4.70
2023-03-15T02:03:02.112Z,5.70
2023-03-15T02:05:33.156Z,7.33
2023-03-15T02:08:00.619Z,4.20
2023-03-15T02:10:35.107Z,4.53
2023-03-15T02:13:02.239Z,4.60
2023-03-15T02:15:29.599Z,4.63
2023-03-15T02:17:56.801Z,8.10
2023-03-15T02:20:30.013Z,8.27
2023-03-15T02:22:57.340Z,4.73
2023-03-15T02:25:27.564Z,4.23
2023-03-15T02:27:54.786Z,4.67
2023-03-15T02:30:21.932Z,6.57
2023-03-15T02:32:49.215Z,4.20
2023-03-15T02:35:29.697Z,5.07
2023-03-15T02:37:56.877Z,4.93
2023-03-15T02:40:24.544Z,4.93
2023-03-15T02:42:52.818Z,5.50
2023-03-15T02:45:20.063Z,6.27
2023-03-15T02:47:47.210Z,7.53
2023-03-15T02:50:14.350Z,5.27
2023-03-15T02:52:41.531Z,6.03
2023-03-15T02:55:08.879Z,5.03
2023-03-15T02:57:36.064Z,7.97
2023-03-15T03:00:14.143Z,8.37
2023-03-15T03:02:45.605Z,5.87
2023-03-15T03:05:13.663Z,7.30
2023-03-15T03:07:42.845Z,9.37
2023-03-15T03:10:10.469Z,7.00
2023-03-15T03:12:37.612Z,8.40
2023-03-15T03:15:05.141Z,8.03
2023-03-15T03:17:32.443Z,15.03
2023-03-15T03:19:59.619Z,8.93
2023-03-15T03:22:26.769Z,6.80
2023-03-15T03:24:53.900Z,10.13
2023-03-15T03:27:21.435Z,7.77
2023-03-15T03:29:48.664Z,6.33
2023-03-15T03:32:15.802Z,7.07
2023-03-15T03:34:48.278Z,9.33
2023-03-15T03:37:18.254Z,6.00
2023-03-15T03:39:45.386Z,5.67
2023-03-15T03:42:12.578Z,7.20
2023-03-15T03:44:39.723Z,9.17
2023-03-15T03:47:06.963Z,7.63
2023-03-15T03:49:34.133Z,8.03
2023-03-15T03:52:01.596Z,11.47
2023-03-15T03:54:28.926Z,11.97
2023-03-15T03:56:56.102Z,6.63
2023-03-15T03:59:23.242Z,9.20
2023-03-15T04:01:51.243Z,9.90
2023-03-15T04:04:18.460Z,8.17
2023-03-15T04:06:45.978Z,8.67
2023-03-15T04:09:14.076Z,8.80
2023-03-15T04:11:44.810Z,7.60
2023-03-15T04:14:12.275Z,10.83
2023-03-15T04:16:39.527Z,11.07
2023-03-15T04:19:06.977Z,9.00
2023-03-15T04:21:34.237Z,11.07
2023-03-15T04:24:01.583Z,12.17
2023-03-15T04:26:28.924Z,13.53
2023-03-15T04:28:56.550Z,12.80
2023-03-15T04:31:27.148Z,15.37
2023-03-15T04:33:57.479Z,14.83
2023-03-15T04:36:24.613Z,15.93
2023-03-15T04:38:51.748Z,18.57
2023-03-15T04:41:18.939Z,13.50
2023-03-15T04:43:46.074Z,12.27
2023-03-15T04:46:13.256Z,11.13
2023-03-15T04:48:41.698Z,11.50
2023-03-15T04:51:08.826Z,14.80
2023-03-15T04:53:36.036Z,14.20
2023-03-15T04:56:04.828Z,10.03
2023-03-15T04:58:32.088Z,12.50
2023-03-15T05:00:59.264Z,10.87
2023-03-15T05:03:26.467Z,8.13
2023-03-15T05:05:53.586Z,13.63
2023-03-15T05:08:20.912Z,7.90
2023-03-15T05:10:48.452Z,10.87
2023-03-15T05:13:15.575Z,8.63
2023-03-15T05:15:42.715Z,7.57
2023-03-15T05:18:09.866Z,9.83
2023-03-15T05:20:37.031Z,10.93
2023-03-15T05:23:04.695Z,11.77
2023-03-15T05:25:31.917Z,13.10
2023-03-15T05:27:59.102Z,9.73
2023-03-15T05:30:26.237Z,10.97
2023-03-15T05:32:53.399Z,7.00
2023-03-15T05:35:20.757Z,10.57
2023-03-15T05:37:47.957Z,12.60
2023-03-15T05:40:15.461Z,11.33
2023-03-15T05:42:42.597Z,12.13
2023-03-15T05:45:10.040Z,5.50
2023-03-15T05:47:37.196Z,7.70
2023-03-15T05:50:05.033Z,10.50
2023-03-15T05:52:32.309Z,9.73
2023-03-15T05:54:59.532Z,9.17
2023-03-15T05:57:26.652Z,7.43
2023-03-15T05:59:55.056Z,18.13
2023-03-15T06:02:22.307Z,8.80
2023-03-15T06:04:49.484Z,12.00
2023-03-15T06:07:16.638Z,12.37
2023-03-15T06:09:43.821Z,10.43
2023-03-15T06:12:11.187Z,13.00
2023-03-15T06:14:38.301Z,11.53
2023-03-15T06:17:05.555Z,12.97
2023-03-15T06:19:32.771Z,15.90
2023-03-15T06:21:59.960Z,11.77
2023-03-15T06:24:27.147Z,10.50
2023-03-15T06:26:57.304Z,11.70
2023-03-15T06:29:24.546Z,8.67
2023-03-15T06:31:52.874Z,12.80
2023-03-15T06:34:21.057Z,13.63
2023-03-15T06:36:49.532Z,6.80
2023-03-15T06:39:16.754Z,11.83
2023-03-15T06:41:43.976Z,14.23
2023-03-15T06:44:11.190Z,11.63
2023-03-15T06:46:38.425Z,19.83
2023-03-15T06:49:05.550Z,18.67
2023-03-15T06:51:32.723Z,11.23
2023-03-15T06:53:59.895Z,12.17
2023-03-15T06:56:27.014Z,13.07
2023-03-15T06:58:54.130Z,8.97
2023-03-15T07:01:21.314Z,9.87
2023-03-15T07:03:48.473Z,14.27
2023-03-15T07:06:15.604Z,11.50
2023-03-15T07:08:43.053Z,9.53
2023-03-15T07:11:10.269Z,10.80
2023-03-15T07:13:37.401Z,11.77
2023-03-15T07:16:04.720Z,11.43
2023-03-15T07:18:33.877Z,11.90
2023-03-15T07:21:01.764Z,11.87
2023-03-15T07:23:29.002Z,10.87
2023-03-15T07:25:56.324Z,12.10
2023-03-15T07:28:23.997Z,12.90
2023-03-15T07:30:54.102Z,10.93
2023-03-15T07:33:24.622Z,12.53
2023-03-15T07:35:53.507Z,16.63
2023-03-15T07:38:21.557Z,10.73
2023-03-15T07:40:48.668Z,13.63
2023-03-15T07:43:15.811Z,14.60
2023-03-15T07:45:43.022Z,11.70
2023-03-15T07:48:10.188Z,11.37
2023-03-15T07:50:37.413Z,10.70
2023-03-15T07:53:05.007Z,11.30
2023-03-15T07:55:32.757Z,15.60
2023-03-15T07:57:59.937Z,18.13
2023-03-15T08:00:27.090Z,16.10
2023-03-15T08:02:54.285Z,15.80
2023-03-15T08:05:22.029Z,14.33
2023-03-15T08:07:49.424Z,11.00
2023-03-15T08:10:16.799Z,11.87
2023-03-15T08:12:44.050Z,13.20
2023-03-15T08:15:11.897Z,13.20
2023-03-15T08:17:39.251Z,14.60
2023-03-15T08:20:07.899Z,15.50
2023-03-15T08:22:36.471Z,13.13
2023-03-15T08:25:04.941Z,14.07
2023-03-15T08:27:32.131Z,10.73
2023-03-15T08:29:59.454Z,8.90
2023-03-15T08:32:26.643Z,11.80
2023-03-15T08:34:53.845Z,13.67
2023-03-15T08:37:21.195Z,10.50
2023-03-15T08:39:48.352Z,11.70
2023-03-15T08:42:15.611Z,7.53
2023-03-15T08:44:42.790Z,12.47
2023-03-15T08:47:09.950Z,11.87
2023-03-15T08:49:37.182Z,17.17
2023-03-15T08:52:04.399Z,69.40
2023-03-15T08:54:31.639Z,13.23
2023-03-15T08:56:58.781Z,13.47
2023-03-15T08:59:31.873Z,9.50
2023-03-15T09:02:00.555Z,9.00
2023-03-15T09:04:27.946Z,6.27
2023-03-15T09:06:55.409Z,8.03
2023-03-15T09:09:22.586Z,7.50
2023-03-15T09:11:49.896Z,8.87
2023-03-15T09:14:17.031Z,8.40
2023-03-15T09:16:44.267Z,14.67
2023-03-15T09:19:11.435Z,15.23
2023-03-15T09:21:38.623Z,6.37
2023-03-15T09:24:05.918Z,9.03
2023-03-15T09:26:33.040Z,9.00
2023-03-15T09:29:00.171Z,10.13
2023-03-15T09:31:27.462Z,6.20
2023-03-15T09:33:54.657Z,11.53
2023-03-15T09:36:21.780Z,11.97
2023-03-15T09:38:48.919Z,13.17
2023-03-15T09:41:30.517Z,17.23
2023-03-15T09:44:06.795Z,11.37
2023-03-15T09:46:34.744Z,11.57
2023-03-15T09:49:06.205Z,9.60
2023-03-15T09:51:39.306Z,10.07
2023-03-15T09:54:08.969Z,5.20
2023-03-15T09:56:40.858Z,6.53
2023-03-15T09:59:08.111Z,5.33
2023-03-15T10:01:36.118Z,6.50
2023-03-15T10:04:23.618Z,7.00
2023-03-15T10:06:52.430Z,7.67
2023-03-15T10:09:21.348Z,4.57
2023-03-15T10:11:48.856Z,9.73
2023-03-15T10:14:22.438Z,8.87
2023-03-15T10:16:51.057Z,12.37
2023-03-15T10:19:19.223Z,9.97
2023-03-15T10:21:46.354Z,7.00
2023-03-15T10:24:16.745Z,9.63
2023-03-15T10:29:17.068Z,9.47
2023-03-15T10:31:46.496Z,9.73
2023-03-15T10:34:14.159Z,7.33
2023-03-15T10:36:54.236Z,5.63
2023-03-15T10:39:21.692Z,7.17
2023-03-15T10:41:49.235Z,4.47
2023-03-15T10:44:26.239Z,6.77
2023-03-15T10:47:04.671Z,4.80
2023-03-15T10:49:37.973Z,10.77
2023-03-15T10:52:05.274Z,11.20
2023-03-15T10:54:32.984Z,7.50
2023-03-15T10:57:07.587Z,5.63
2023-03-15T10:59:35.252Z,5.03
2023-03-15T11:02:16.470Z,11.03
2023-03-15T11:04:44.094Z,6.67
2023-03-15T11:07:13.488Z,9.77
2023-03-15T11:09:41.701Z,7.77
2023-03-15T11:12:09.489Z,8.67
2023-03-15T11:14:36.626Z,11.87
2023-03-15T11:17:03.977Z,6.90
2023-03-15T11:19:31.973Z,5.03
2023-03-15T11:21:59.294Z,11.17
2023-03-15T11:24:27.483Z,7.63
2023-03-15T11:26:55.392Z,9.60
2023-03-15T11:29:23.977Z,7.10
2023-03-15T11:31:51.394Z,8.80
2023-03-15T11:34:37.277Z,13.30
2023-03-15T11:37:08.909Z,11.20
2023-03-15T11:40:08.883Z,6.10
2023-03-15T11:42:39.821Z,7.97
2023-03-15T11:45:08.239Z,5.73
2023-03-15T11:47:40.991Z,5.37
2023-03-15T11:50:08.216Z,7.70
2023-03-15T11:52:35.579Z,6.67
2023-03-15T11:55:03.905Z,8.87
2023-03-15T11:57:38.261Z,8.10
2023-03-15T12:00:18.269Z,10.67
2023-03-15T12:02:48.872Z,4.87
2023-03-15T12:05:36.021Z,6.77
2023-03-15T12:08:34.609Z,11.90
2023-03-15T12:11:01.852Z,7.73
2023-03-15T12:13:30.138Z,11.27
2023-03-15T12:15:57.430Z,8.73
2023-03-15T12:18:29.171Z,4.73
2023-03-15T12:21:08.666Z,9.60
2023-03-15T12:23:37.973Z,7.22
2023-03-15T12:26:08.005Z,7.00
2023-03-15T12:28:36.035Z,11.97
2023-03-15T12:31:04.322Z,7.13
2023-03-15T12:33:32.241Z,5.20
2023-03-15T12:36:19.716Z,8.70
2023-03-15T12:38:54.448Z,8.70
2023-03-15T12:41:40.715Z,8.95
2023-03-15T12:44:20.230Z,5.73
2023-03-15T12:46:47.396Z,10.13
2023-03-15T12:49:22.281Z,6.10
2023-03-15T12:51:58.182Z,4.43
2023-03-15T12:54:26.895Z,6.03
2023-03-15T12:56:55.625Z,7.80
2023-03-15T12:59:41.768Z,6.47
2023-03-15T13:02:29.512Z,7.70
2023-03-15T13:05:10.411Z,11.07
2023-03-15T13:07:52.297Z,9.43
2023-03-15T13:10:25.845Z,7.33
2023-03-15T13:12:58.440Z,7.77
2023-03-15T13:15:27.546Z,4.67
2023-03-15T13:18:02.089Z,5.87
2023-03-15T13:20:41.527Z,5.40
2023-03-15T13:23:15.990Z,9.17
2023-03-15T13:25:59.260Z,12.17
2023-03-15T13:28:28.995Z,6.20
2023-03-15T13:30:56.257Z,10.13
2023-03-15T13:33:24.619Z,5.03
2023-03-15T13:36:01.552Z,6.10
2023-03-15T13:38:28.842Z,6.67
2023-03-15T13:40:56.214Z,10.33
2023-03-15T13:43:36.642Z,10.70
2023-03-15T13:46:03.852Z,12.20
2023-03-15T13:48:31.742Z,34.73
2023-03-15T13:51:01.997Z,33.80
2023-03-15T13:53:46.546Z,54.47
2023-03-15T13:56:17.058Z,87.43
2023-03-15T13:58:44.253Z,63.20
2023-03-15T14:01:12.255Z,173.65
2023-03-15T14:03:43.296Z,115.75
2023-03-15T14:06:14.165Z,35.47
2023-03-15T14:08:41.327Z,44.47
2023-03-15T14:11:10.220Z,26.73
2023-03-15T14:13:49.507Z,13.77
2023-03-15T14:16:17.807Z,11.70
2023-03-15T14:18:45.005Z,7.03
2023-03-15T14:21:12.126Z,7.77
2023-03-15T14:23:46.156Z,10.13
2023-03-15T14:26:21.562Z,11.37
2023-03-15T14:29:09.207Z,13.13
2023-03-15T14:31:39.366Z,20.10
2023-03-15T14:34:08.532Z,15.17
2023-03-15T14:36:42.610Z,7.77
2023-03-15T14:39:17.909Z,22.97
2023-03-15T14:41:45.232Z,34.87
2023-03-15T14:44:12.350Z,40.67
2023-03-15T14:46:39.480Z,19.57
2023-03-15T14:49:06.656Z,23.77
2023-03-15T14:51:33.848Z,18.20
2023-03-15T14:54:01.687Z,9.53
2023-03-15T14:56:28.883Z,12.30
2023-03-15T14:58:56.069Z,13.00
2023-03-15T15:01:26.505Z,15.33
2023-03-15T15:03:54.639Z,10.67
2023-03-15T15:06:22.125Z,16.90
2023-03-15T15:08:49.494Z,8.38
2023-03-15T15:11:16.682Z,8.83
2023-03-15T15:13:43.826Z,10.67
2023-03-15T15:16:11.105Z,8.77
2023-03-15T15:18:38.510Z,9.67
2023-03-15T15:21:26.019Z,11.03
2023-03-15T15:24:00.491Z,11.60
2023-03-15T15:26:28.502Z,10.17
2023-03-15T15:28:56.495Z,10.33
2023-03-15T15:31:24.166Z,8.83
2023-03-15T15:33:51.754Z,7.63
2023-03-15T15:36:37.886Z,18.23
2023-03-15T15:39:07.075Z,10.73
2023-03-15T15:41:34.635Z,14.13
2023-03-15T15:44:01.843Z,10.87
2023-03-15T15:46:29.220Z,13.70
2023-03-15T15:48:56.417Z,13.97
2023-03-15T15:51:27.825Z,11.87
2023-03-15T15:53:55.934Z,10.40
2023-03-15T15:56:23.581Z,15.23
2023-03-15T15:58:50.749Z,12.33
2023-03-15T16:01:17.974Z,46.23
2023-03-15T16:03:45.086Z,56.67
2023-03-15T16:06:19.072Z,111.00
2023-03-15T16:08:46.319Z,43.67
2023-03-15T16:11:13.952Z,57.00
2023-03-15T16:13:41.247Z,191.67
2023-03-15T16:16:11.791Z,181.90
2023-03-15T16:18:38.968Z,113.03
2023-03-15T16:21:06.327Z,118.93
2023-03-15T16:23:33.466Z,87.57
2023-03-15T16:26:00.715Z,94.23
2023-03-15T16:28:27.931Z,289.90
2023-03-15T16:30:55.123Z,124.43
2023-03-15T16:33:22.453Z,79.97
2023-03-15T16:35:50.787Z,116.37
2023-03-15T16:38:24.257Z,115.67
2023-03-15T16:40:52.349Z,85.80
2023-03-15T16:43:21.928Z,84.60
2023-03-15T16:45:49.076Z,48.13
2023-03-15T16:48:16.320Z,50.83
2023-03-15T16:50:43.470Z,16.07
2023-03-15T16:53:11.220Z,17.77
2023-03-15T16:55:38.641Z,49.10
2023-03-15T16:58:12.023Z,20.50
2023-03-15T17:00:39.211Z,18.73
2023-03-15T17:03:07.131Z,21.17
2023-03-15T17:05:34.399Z,27.00
2023-03-15T17:08:01.574Z,30.80
2023-03-15T17:10:29.317Z,30.67
2023-03-15T17:12:56.503Z,23.73
2023-03-15T17:15:24.908Z,27.00
2023-03-15T17:17:52.683Z,25.50
2023-03-15T17:20:21.554Z,16.63
2023-03-15T17:22:52.085Z,17.57
2023-03-15T17:25:19.370Z,11.93
2023-03-15T17:27:46.910Z,16.63
2023-03-15T17:30:18.355Z,16.03
2023-03-15T17:32:45.540Z,25.97
2023-03-15T17:35:13.853Z,26.57
2023-03-15T17:37:44.749Z,54.87
2023-03-15T17:40:23.183Z,86.13
2023-03-15T17:42:51.392Z,72.07
2023-03-15T17:45:22.512Z,102.70
2023-03-15T17:47:50.296Z,34.20
2023-03-15T17:50:18.103Z,43.17
2023-03-15T17:52:45.305Z,40.30
2023-03-15T17:55:16.575Z,73.60
2023-03-15T17:57:54.036Z,58.97
2023-03-15T18:00:22.430Z,38.97
2023-03-15T18:02:55.228Z,51.47
2023-03-15T18:05:23.755Z,47.30
2023-03-15T18:07:58.589Z,66.13
2023-03-15T18:10:26.666Z,49.23
2023-03-15T18:12:53.974Z,61.50
2023-03-15T18:15:22.228Z,57.50
2023-03-15T18:17:50.696Z,75.33
2023-03-15T18:20:18.408Z,102.67
2023-03-15T18:22:45.587Z,120.23
2023-03-15T18:25:22.849Z,88.43
2023-03-15T18:27:50.139Z,65.53
2023-03-15T18:30:21.598Z,63.13
2023-03-15T18:32:49.185Z,60.07
2023-03-15T18:35:17.995Z,63.87
2023-03-15T18:37:45.304Z,97.03
2023-03-15T18:40:13.751Z,214.63
2023-03-15T18:42:41.802Z,159.00
2023-03-15T18:45:11.048Z,129.67
2023-03-15T18:47:38.226Z,111.47
2023-03-15T18:50:10.517Z,158.47
2023-03-15T18:52:38.032Z,112.07
2023-03-15T18:55:07.817Z,114.23
2023-03-15T18:57:35.552Z,129.40
2023-03-15T19:00:07.275Z,120.20
2023-03-15T19:02:34.501Z,119.40
2023-03-15T19:05:01.687Z,139.53
2023-03-15T19:07:28.896Z,127.00
2023-03-15T19:09:56.023Z,105.67
2023-03-15T19:12:23.152Z,99.70
2023-03-15T19:14:50.499Z,92.60
2023-03-15T19:17:17.679Z,104.53
2023-03-15T19:19:44.809Z,109.37
2023-03-15T19:22:12.100Z,107.97
2023-03-15T19:24:39.230Z,104.80
2023-03-15T19:27:06.469Z,80.43
2023-03-15T19:29:33.699Z,57.27
2023-03-15T19:32:00.885Z,61.23
2023-03-15T19:34:28.230Z,92.60
2023-03-15T19:36:55.422Z,67.47
2023-03-15T19:39:22.892Z,68.07
2023-03-15T19:41:50.025Z,73.40
2023-03-15T19:44:19.517Z,72.20
2023-03-15T19:46:46.743Z,69.20
2023-03-15T19:49:13.888Z,70.17
2023-03-15T19:51:41.073Z,42.60
2023-03-15T19:54:08.200Z,56.40
2023-03-15T19:56:35.405Z,62.10
2023-03-15T19:59:03.211Z,66.33
2023-03-15T20:01:30.354Z,64.03
2023-03-15T20:03:57.557Z,68.50
2023-03-15T20:06:24.729Z,71.30
2023-03-15T20:08:51.868Z,72.97
2023-03-15T20:11:27.197Z,72.63
2023-03-15T20:13:54.336Z,61.57
2023-03-15T20:16:22.114Z,74.83
2023-03-15T20:18:51.324Z,69.40
2023-03-15T20:21:18.937Z,94.37
2023-03-15T20:23:47.133Z,135.67
2023-03-15T20:26:15.931Z,115.43
2023-03-15T20:28:44.165Z,115.73
2023-03-15T20:31:15.709Z,113.87
2023-03-15T20:33:43.398Z,110.83
2023-03-15T20:36:11.414Z,119.87
2023-03-15T20:38:38.830Z,106.50
2023-03-15T20:41:06.420Z,104.53
2023-03-15T20:43:33.617Z,97.27
2023-03-15T20:46:01.463Z,96.97
2023-03-15T20:48:29.151Z,87.43
2023-03-15T20:50:58.033Z,93.20
2023-03-15T20:53:25.627Z,87.53
2023-03-15T20:55:52.840Z,86.17
2023-03-15T20:58:20.013Z,89.80
2023-03-15T21:00:47.226Z,86.20
2023-03-15T21:03:14.944Z,82.57
2023-03-15T21:05:43.420Z,104.67
2023-03-15T21:08:10.712Z,122.50
2023-03-15T21:10:38.208Z,150.53
2023-03-15T21:13:10.105Z,156.53
2023-03-15T21:15:51.570Z,143.47
2023-03-15T21:18:18.717Z,120.83
2023-03-15T21:20:45.890Z,107.47
2023-03-15T21:23:13.089Z,88.27
2023-03-15T21:25:40.228Z,96.20
2023-03-15T21:28:07.346Z,98.43
2023-03-15T21:30:34.559Z,91.00
2023-03-15T21:33:01.795Z,92.93
2023-03-15T21:35:28.992Z,107.27
2023-03-15T21:37:56.302Z,112.13
2023-03-15T21:40:23.782Z,120.10
2023-03-15T21:42:51.085Z,135.70
2023-03-15T21:45:18.327Z,124.37
2023-03-15T21:47:46.981Z,118.93
2023-03-15T21:50:14.184Z,139.13
2023-03-15T21:52:41.370Z,199.87
2023-03-15T21:55:08.910Z,188.93
2023-03-15T21:57:36.199Z,183.93
2023-03-15T22:00:05.394Z,210.53
2023-03-15T22:02:32.538Z,247.63
2023-03-15T22:05:00.054Z,234.93
2023-03-15T22:07:27.303Z,178.40
2023-03-15T22:09:54.428Z,149.63
2023-03-15T22:12:21.571Z,146.20
2023-03-15T22:14:56.856Z,125.13
2023-03-15T22:17:31.806Z,60.77
2023-03-15T22:19:58.951Z,105.83
2023-03-15T22:22:26.662Z,94.07
2023-03-15T22:24:53.822Z,80.17
2023-03-15T22:27:21.008Z,77.93
2023-03-15T22:29:48.143Z,71.93
2023-03-15T22:32:15.330Z,73.73
2023-03-15T22:34:42.688Z,78.80
2023-03-15T22:37:09.823Z,71.07
2023-03-15T22:39:37.299Z,68.77
2023-03-15T22:42:04.519Z,68.10
2023-03-15T22:44:31.648Z,73.60
2023-03-15T22:46:58.790Z,76.33
2023-03-15T22:49:25.938Z,75.67
2023-03-15T22:51:53.075Z,70.53
2023-03-15T22:54:20.193Z,82.53
2023-03-15T22:56:47.608Z,80.40
2023-03-15T22:59:14.751Z,85.57
2023-03-15T23:01:42.003Z,82.53
2023-03-15T23:04:09.437Z,76.07
2023-03-15T23:06:36.642Z,81.00
2023-03-15T23:09:05.632Z,69.40
2023-03-15T23:11:33.759Z,69.57
2023-03-15T23:14:00.893Z,66.83
2023-03-15T23:16:28.082Z,73.27
2023-03-15T23:18:55.289Z,69.17
2023-03-15T23:21:22.430Z,68.60
2023-03-15T23:23:49.572Z,70.83
2023-03-15T23:26:16.936Z,58.67
2023-03-15T23:28:44.115Z,40.20
2023-03-15T23:31:11.290Z,48.60
2023-03-15T23:33:38.481Z,46.00
2023-03-15T23:36:06.931Z,26.80
2023-03-15T23:38:36.876Z,28.37
2023-03-15T23:41:05.029Z,31.43
2023-03-15T23:43:32.362Z,28.23
2023-03-15T23:45:59.866Z,20.50
2023-03-15T23:48:27.242Z,26.53
2023-03-15T23:50:54.839Z,25.27
2023-03-15T23:53:22.062Z,27.53
2023-03-15T23:55:49.520Z,25.00
2023-03-15T23:58:16.686Z,24.50
